logo
Search for airport 
image banner adimage banner adimage banner ad
image banner ad

MMLTA - La Angostura

Located in Caborca, Mexico

ICAO - , IATA -

Data provided by Airmate  

General information

Coordinates: N30°51'2" W112°48'53"
Elevation is 213 feet MSL.
Magnetic variation is 9° East
View others Airports in Sonora

Operational data

Special qualification required
Current time UTC:
Current local time:
METAR: MMPE 171640Z 15015KT 10SM SKC 30/13 A2961 RMK HZY
View NOTAMs / SUP AIP / TFR affecting this airport [VIEW]
Communications frequencies: [VIEW]

Runways:

RWY identifierQFULength (ft)Width (ft)SurfaceLDA (ft)
36221360DIRT
18188°221360DIRT

Airport contact information

Address: Caborca Mexico

Satellite view of MMLTA